createdAt,value
2018-06-13T00:02:21.355Z,14.90
2018-06-13T00:04:50.190Z,14.90
2018-06-13T00:07:19.431Z,15.00
2018-06-13T00:09:48.313Z,15.00
2018-06-13T00:12:17.119Z,15.10
2018-06-13T00:14:45.955Z,15.10
2018-06-13T00:17:14.883Z,15.20
2018-06-13T00:19:43.673Z,15.20
2018-06-13T00:22:12.500Z,15.20
2018-06-13T00:24:41.320Z,15.10
2018-06-13T00:27:10.102Z,15.00
2018-06-13T00:32:07.336Z,14.90
2018-06-13T00:34:36.089Z,15.00
2018-06-13T00:37:04.983Z,14.90
2018-06-13T00:39:33.839Z,14.90
2018-06-13T00:42:02.671Z,14.90
2018-06-13T00:44:31.529Z,14.90
2018-06-13T00:47:00.365Z,14.90
2018-06-13T00:49:29.173Z,14.90
2018-06-13T00:51:58.045Z,14.90
2018-06-13T00:54:26.886Z,14.90
2018-06-13T00:56:55.783Z,15.00
2018-06-13T00:59:24.677Z,15.00
2018-06-13T01:01:53.548Z,15.00
2018-06-13T01:04:22.544Z,15.00
2018-06-13T01:06:51.467Z,15.00
2018-06-13T01:09:20.316Z,15.00
2018-06-13T01:11:49.152Z,15.00
2018-06-13T01:14:17.988Z,15.00
2018-06-13T01:16:46.803Z,14.80
2018-06-13T01:19:15.740Z,14.80
2018-06-13T01:21:44.630Z,14.80
2018-06-13T01:24:14.164Z,14.80
2018-06-13T01:26:43.036Z,14.80
2018-06-13T01:29:11.930Z,14.80
2018-06-13T01:31:40.768Z,14.80
2018-06-13T01:34:09.622Z,14.80
2018-06-13T01:36:38.520Z,14.70
2018-06-13T01:39:08.388Z,14.70
2018-06-13T01:44:05.765Z,14.80
2018-06-13T01:46:34.601Z,14.90
2018-06-13T01:49:03.468Z,14.90
2018-06-13T01:51:32.361Z,14.90
2018-06-13T01:54:01.210Z,14.90
2018-06-13T01:56:30.094Z,14.90
2018-06-13T01:58:58.995Z,14.90
2018-06-13T02:01:27.829Z,14.90
2018-06-13T02:03:56.637Z,15.00
2018-06-13T02:06:26.142Z,14.90
2018-06-13T02:08:55.038Z,14.90
2018-06-13T02:11:23.860Z,14.90
2018-06-13T02:13:52.744Z,14.90
2018-06-13T02:16:21.572Z,14.90
2018-06-13T02:18:50.405Z,14.90
2018-06-13T02:21:19.342Z,14.90
2018-06-13T02:23:48.215Z,14.90
2018-06-13T02:26:17.093Z,14.90
2018-06-13T02:28:46.048Z,14.90
2018-06-13T02:31:15.032Z,14.90
2018-06-13T02:33:43.934Z,14.90
2018-06-13T02:36:12.856Z,14.90
2018-06-13T02:38:41.695Z,14.90
2018-06-13T02:41:10.571Z,14.90
2018-06-13T02:43:39.402Z,14.90
2018-06-13T02:46:08.294Z,14.90
2018-06-13T02:48:37.300Z,14.90
2018-06-13T02:51:06.216Z,14.90
2018-06-13T02:53:35.312Z,14.80
2018-06-13T02:56:04.271Z,14.80
2018-06-13T02:58:33.147Z,14.90
2018-06-13T03:01:01.991Z,14.90
2018-06-13T03:05:59.268Z,14.90
2018-06-13T03:08:28.118Z,14.90
2018-06-13T03:10:56.958Z,14.90
2018-06-13T03:13:25.810Z,15.00
2018-06-13T03:15:54.703Z,14.90
2018-06-13T03:18:23.613Z,15.00
2018-06-13T03:20:52.804Z,15.00
2018-06-13T03:23:22.479Z,15.00
2018-06-13T03:25:51.400Z,14.90
2018-06-13T03:28:20.307Z,14.90
2018-06-13T03:30:49.234Z,14.90
2018-06-13T03:33:18.094Z,14.90
2018-06-13T03:35:47.016Z,14.90
2018-06-13T03:38:15.912Z,14.90
2018-06-13T03:40:45.678Z,15.00
2018-06-13T03:43:14.644Z,15.00
2018-06-13T03:45:43.899Z,15.10
2018-06-13T03:48:12.808Z,15.10
2018-06-13T03:50:41.689Z,15.10
2018-06-13T03:53:10.562Z,15.10
2018-06-13T03:55:39.394Z,15.00
2018-06-13T03:58:08.283Z,15.00
2018-06-13T04:00:37.131Z,14.80
2018-06-13T04:03:06.121Z,14.80
2018-06-13T04:05:35.025Z,14.70
2018-06-13T04:08:03.879Z,14.70
2018-06-13T04:10:32.706Z,14.60
2018-06-13T04:13:01.526Z,14.60
2018-06-13T04:15:30.372Z,14.50
2018-06-13T04:17:59.258Z,14.50
2018-06-13T04:20:28.180Z,14.50
2018-06-13T04:22:57.023Z,14.50
2018-06-13T04:25:25.899Z,14.50
2018-06-13T04:27:54.804Z,14.50
2018-06-13T04:30:23.631Z,14.40
2018-06-13T04:32:52.485Z,14.50
2018-06-13T04:35:21.274Z,14.50
2018-06-13T04:37:50.159Z,14.50
2018-06-13T04:40:19.057Z,14.50
2018-06-13T04:42:47.953Z,14.50
2018-06-13T04:45:16.834Z,14.50
2018-06-13T04:47:45.753Z,14.50
2018-06-13T04:50:14.643Z,14.50
2018-06-13T04:52:43.536Z,14.50
2018-06-13T04:55:12.465Z,14.50
2018-06-13T04:57:41.400Z,14.50
2018-06-13T05:00:10.412Z,14.40
2018-06-13T05:02:39.295Z,14.40
2018-06-13T05:05:08.100Z,14.40
2018-06-13T05:07:36.946Z,14.50
2018-06-13T05:10:05.749Z,14.40
2018-06-13T05:12:34.674Z,14.40
2018-06-13T05:15:03.820Z,14.40
2018-06-13T05:17:32.686Z,14.40
2018-06-13T05:20:01.637Z,14.30
2018-06-13T05:22:30.552Z,14.30
2018-06-13T05:27:28.807Z,14.30
2018-06-13T05:29:58.091Z,14.40
2018-06-13T05:32:26.983Z,14.30
2018-06-13T05:34:55.901Z,14.40
2018-06-13T05:37:24.924Z,14.50
2018-06-13T05:39:54.618Z,14.50
2018-06-13T05:42:23.708Z,14.60
2018-06-13T05:44:52.909Z,14.60
2018-06-13T05:47:21.788Z,14.60
2018-06-13T05:49:52.200Z,14.60
2018-06-13T05:52:21.390Z,14.60
2018-06-13T05:54:50.441Z,14.60
2018-06-13T05:57:19.300Z,14.70
2018-06-13T05:59:48.128Z,14.70
2018-06-13T06:02:17.364Z,14.70
2018-06-13T06:04:46.662Z,14.70
2018-06-13T06:07:15.583Z,14.70
2018-06-13T06:09:44.469Z,14.60
2018-06-13T06:12:14.227Z,14.60
2018-06-13T06:14:43.156Z,14.60
2018-06-13T06:17:12.015Z,14.60
2018-06-13T06:19:40.867Z,14.50
2018-06-13T06:22:09.809Z,14.50
2018-06-13T06:24:38.688Z,14.50
2018-06-13T06:27:07.582Z,14.40
2018-06-13T06:29:36.466Z,14.30
2018-06-13T06:32:05.350Z,14.30
2018-06-13T06:34:34.428Z,14.30
2018-06-13T06:37:03.471Z,14.20
2018-06-13T06:39:36.059Z,14.30
2018-06-13T06:42:05.194Z,14.20
2018-06-13T06:44:34.083Z,14.30
2018-06-13T06:47:03.015Z,14.40
2018-06-13T06:49:31.915Z,14.50
2018-06-13T06:52:00.845Z,14.60
2018-06-13T06:54:30.001Z,14.60
2018-06-13T06:56:58.900Z,14.50
2018-06-13T06:59:27.804Z,14.50
2018-06-13T07:01:56.626Z,14.60
2018-06-13T07:04:25.501Z,14.70
2018-06-13T07:06:55.324Z,14.70
2018-06-13T07:09:24.272Z,14.70
2018-06-13T07:11:53.111Z,14.90
2018-06-13T07:14:22.008Z,14.90
2018-06-13T07:16:50.927Z,15.00
2018-06-13T07:19:19.855Z,15.00
2018-06-13T07:21:50.529Z,15.00
2018-06-13T07:24:19.571Z,15.10
2018-06-13T07:26:48.651Z,15.20
2018-06-13T07:29:17.485Z,15.30
2018-06-13T07:31:48.321Z,15.40
2018-06-13T07:34:18.037Z,15.60
2018-06-13T07:36:46.968Z,15.70
2018-06-13T07:39:16.074Z,15.80
2018-06-13T07:41:46.242Z,15.90
2018-06-13T07:44:15.516Z,16.00
2018-06-13T07:46:44.853Z,16.10
2018-06-13T07:49:13.939Z,16.20
2018-06-13T07:51:44.690Z,16.30
2018-06-13T07:54:15.544Z,16.40
2018-06-13T07:56:46.586Z,16.50
2018-06-13T08:01:45.217Z,16.50
2018-06-13T08:04:14.109Z,16.40
2018-06-13T08:06:47.545Z,16.50
2018-06-13T08:09:16.441Z,16.50
2018-06-13T08:11:48.165Z,16.60
2018-06-13T08:14:17.931Z,16.70
2018-06-13T08:16:47.340Z,16.90
2018-06-13T08:19:19.131Z,16.80
2018-06-13T08:21:50.214Z,16.80
2018-06-13T08:24:24.384Z,16.80
2018-06-13T08:26:55.314Z,17.00
2018-06-13T08:29:24.306Z,17.00
2018-06-13T08:31:53.267Z,16.90
2018-06-13T08:34:27.970Z,17.10
2018-06-13T08:36:57.014Z,17.20
2018-06-13T08:39:26.991Z,17.10
2018-06-13T08:41:55.796Z,17.00
2018-06-13T08:44:25.254Z,16.90
2018-06-13T08:46:54.167Z,16.80
2018-06-13T08:49:23.176Z,16.90
2018-06-13T08:51:52.410Z,16.90
2018-06-13T08:56:55.655Z,16.70
2018-06-13T08:59:28.783Z,16.70
2018-06-13T09:02:01.386Z,16.70
2018-06-13T09:04:31.425Z,16.50
2018-06-13T09:07:01.890Z,16.60
2018-06-13T09:09:32.348Z,16.50
2018-06-13T09:12:05.124Z,16.50
2018-06-13T09:14:36.329Z,16.50
2018-06-13T09:17:07.852Z,16.70
2018-06-13T09:19:37.938Z,16.90
2018-06-13T09:24:35.496Z,17.30
2018-06-13T09:27:05.853Z,17.40
2018-06-13T09:29:40.150Z,17.50
2018-06-13T09:32:10.675Z,17.80
2018-06-13T09:34:42.443Z,18.00
2018-06-13T09:37:13.101Z,18.00
2018-06-13T09:39:43.292Z,17.70
2018-06-13T09:42:12.897Z,17.40
2018-06-13T09:44:49.443Z,17.30
2018-06-13T09:47:24.035Z,17.20
2018-06-13T09:49:54.664Z,17.30
2018-06-13T09:52:25.741Z,17.30
2018-06-13T09:55:00.193Z,17.30
2018-06-13T09:57:29.476Z,17.30
2018-06-13T10:00:06.759Z,17.50
2018-06-13T10:02:37.412Z,17.80
2018-06-13T10:05:10.475Z,18.20
2018-06-13T10:07:44.099Z,18.30
2018-06-13T10:10:13.173Z,18.20
2018-06-13T10:12:42.256Z,18.00
2018-06-13T10:15:11.291Z,18.10
2018-06-13T10:17:43.506Z,18.20
2018-06-13T10:20:14.177Z,18.10
2018-06-13T10:22:44.155Z,18.40
2018-06-13T10:25:13.189Z,18.80
2018-06-13T10:27:44.391Z,19.20
2018-06-13T10:30:17.036Z,19.40
2018-06-13T10:32:49.105Z,19.80
2018-06-13T10:35:18.165Z,20.20
2018-06-13T10:37:50.466Z,20.70
2018-06-13T10:40:21.300Z,20.40
2018-06-13T10:42:52.495Z,20.30
2018-06-13T10:45:23.486Z,20.00
2018-06-13T10:47:52.505Z,19.80
2018-06-13T10:50:23.284Z,19.60
2018-06-13T10:52:55.274Z,19.10
2018-06-13T10:55:26.209Z,18.80
2018-06-13T10:57:55.532Z,18.70
2018-06-13T11:00:26.188Z,18.60
2018-06-13T11:02:57.042Z,18.20
2018-06-13T11:05:31.754Z,17.90
2018-06-13T11:08:07.788Z,17.80
2018-06-13T11:10:42.357Z,17.80
2018-06-13T11:13:12.195Z,17.90
2018-06-13T11:15:46.690Z,17.80
2018-06-13T11:18:24.801Z,18.00
2018-06-13T11:20:53.845Z,18.30
2018-06-13T11:23:23.701Z,18.50
2018-06-13T11:25:52.953Z,18.80
2018-06-13T11:28:25.222Z,19.10
2018-06-13T11:30:54.514Z,19.40
2018-06-13T11:33:25.272Z,19.70
2018-06-13T11:35:54.326Z,20.00
2018-06-13T11:38:28.079Z,20.00
2018-06-13T11:40:57.958Z,20.10
2018-06-13T11:43:26.888Z,20.30
2018-06-13T11:45:58.728Z,20.10
2018-06-13T11:48:27.730Z,20.10
2018-06-13T11:50:56.796Z,20.00
2018-06-13T11:53:28.244Z,20.00
2018-06-13T11:55:57.459Z,20.30
2018-06-13T11:58:28.258Z,20.30
2018-06-13T12:00:57.365Z,20.30
2018-06-13T12:03:26.415Z,20.40
2018-06-13T12:05:55.542Z,20.00
2018-06-13T12:08:24.613Z,19.60
2018-06-13T12:10:53.484Z,19.70
2018-06-13T12:13:22.389Z,19.30
2018-06-13T12:15:51.266Z,19.20
2018-06-13T12:18:20.421Z,19.10
2018-06-13T12:20:49.837Z,18.90
2018-06-13T12:23:18.818Z,18.70
2018-06-13T12:25:47.784Z,18.60
2018-06-13T12:28:16.661Z,18.80
2018-06-13T12:30:45.534Z,18.70
2018-06-13T12:33:14.374Z,18.80
2018-06-13T12:35:43.269Z,19.30
2018-06-13T12:38:12.138Z,19.60
2018-06-13T12:40:41.003Z,19.80
2018-06-13T12:43:09.923Z,19.70
2018-06-13T12:45:38.881Z,19.80
2018-06-13T12:48:07.770Z,19.50
2018-06-13T12:50:36.675Z,19.60
2018-06-13T12:53:05.586Z,19.70
2018-06-13T12:55:34.426Z,19.80
2018-06-13T12:58:03.319Z,20.10
2018-06-13T13:00:35.194Z,20.00
2018-06-13T13:03:04.240Z,20.00
2018-06-13T13:05:33.180Z,20.00
2018-06-13T13:08:02.026Z,20.10
2018-06-13T13:10:31.670Z,20.00
2018-06-13T13:13:00.452Z,20.00
2018-06-13T13:15:29.332Z,20.10
2018-06-13T13:17:58.259Z,20.00
2018-06-13T13:20:27.236Z,19.80
2018-06-13T13:22:56.147Z,19.60
2018-06-13T13:25:25.001Z,19.70
2018-06-13T13:27:53.943Z,19.50
2018-06-13T13:30:22.826Z,19.60
2018-06-13T13:32:53.013Z,19.60
2018-06-13T13:35:21.971Z,19.80
2018-06-13T13:40:19.297Z,20.40
2018-06-13T13:42:48.942Z,20.60
2018-06-13T13:45:17.923Z,20.60
2018-06-13T13:47:46.779Z,20.80
2018-06-13T13:50:19.011Z,20.60
2018-06-13T13:52:47.860Z,20.70
2018-06-13T13:55:16.684Z,20.80
2018-06-13T13:57:45.608Z,20.70
2018-06-13T14:00:14.529Z,20.80
2018-06-13T14:02:43.383Z,20.80
2018-06-13T14:05:12.209Z,20.90
2018-06-13T14:07:41.069Z,21.10
2018-06-13T14:10:10.037Z,21.10
2018-06-13T14:12:38.932Z,21.10
2018-06-13T14:15:07.797Z,20.80
2018-06-13T14:17:36.652Z,20.90
2018-06-13T14:20:05.993Z,20.90
2018-06-13T14:22:34.923Z,21.00
2018-06-13T14:25:03.823Z,21.00
2018-06-13T14:27:32.714Z,21.00
2018-06-13T14:30:01.518Z,21.10
2018-06-13T14:32:30.406Z,21.30
2018-06-13T14:34:59.256Z,21.10
2018-06-13T14:37:28.137Z,21.00
2018-06-13T14:39:57.119Z,20.90
2018-06-13T14:42:25.987Z,20.80
2018-06-13T14:44:54.920Z,20.80
2018-06-13T14:47:23.741Z,20.50
2018-06-13T14:49:52.630Z,20.40
2018-06-13T14:52:21.481Z,20.30
2018-06-13T14:54:50.420Z,20.20
2018-06-13T14:57:19.329Z,20.00
2018-06-13T14:59:48.222Z,19.80
2018-06-13T15:02:17.033Z,19.60
2018-06-13T15:04:45.897Z,19.50
2018-06-13T15:07:14.845Z,19.60
2018-06-13T15:09:43.695Z,19.50
2018-06-13T15:12:12.577Z,19.60
2018-06-13T15:14:41.472Z,19.80
2018-06-13T15:19:38.817Z,20.00
2018-06-13T15:22:07.821Z,20.00
2018-06-13T15:24:36.720Z,20.10
2018-06-13T15:27:05.623Z,20.20
2018-06-13T15:32:02.923Z,20.20
2018-06-13T15:34:32.727Z,20.30
2018-06-13T15:37:01.563Z,19.90
2018-06-13T15:39:30.449Z,19.70
2018-06-13T15:41:59.291Z,19.60
2018-06-13T15:44:28.206Z,19.60
2018-06-13T15:46:57.049Z,19.40
2018-06-13T15:49:25.954Z,19.40
2018-06-13T15:51:54.917Z,19.50
2018-06-13T15:54:24.397Z,19.50
2018-06-13T15:59:21.912Z,19.90
2018-06-13T16:01:50.801Z,19.90
2018-06-13T16:04:19.700Z,20.00
2018-06-13T16:06:48.578Z,20.10
2018-06-13T16:09:17.466Z,20.00
2018-06-13T16:11:46.382Z,20.00
2018-06-13T16:14:15.309Z,19.80
2018-06-13T16:16:44.169Z,19.80
2018-06-13T16:19:13.041Z,19.70
2018-06-13T16:21:42.541Z,19.80
2018-06-13T16:24:11.432Z,19.80
2018-06-13T16:26:40.315Z,19.80
2018-06-13T16:29:09.151Z,19.90
2018-06-13T16:31:38.089Z,20.00
2018-06-13T16:34:06.982Z,20.10
2018-06-13T16:36:35.851Z,20.00
2018-06-13T16:39:06.714Z,20.00
2018-06-13T16:41:35.564Z,19.90
2018-06-13T16:44:04.484Z,19.90
2018-06-13T16:46:33.382Z,19.80
2018-06-13T16:49:02.291Z,19.80
2018-06-13T16:51:42.276Z,19.80
2018-06-13T16:54:13.776Z,19.60
2018-06-13T16:56:43.398Z,19.60
2018-06-13T16:59:12.280Z,19.60
2018-06-13T17:01:41.129Z,19.60
2018-06-13T17:06:38.557Z,19.60
2018-06-13T17:09:08.158Z,19.50
2018-06-13T17:11:37.044Z,19.20
2018-06-13T17:14:05.916Z,19.20
2018-06-13T17:16:34.853Z,19.30
2018-06-13T17:19:03.766Z,19.40
2018-06-13T17:21:33.286Z,19.40
2018-06-13T17:24:02.190Z,19.50
2018-06-13T17:26:31.038Z,19.30
2018-06-13T17:29:00.003Z,19.20
2018-06-13T17:31:28.965Z,19.00
2018-06-13T17:33:57.944Z,18.90
2018-06-13T17:36:26.809Z,18.80
2018-06-13T17:38:55.647Z,18.80
2018-06-13T17:41:24.601Z,18.90
2018-06-13T17:43:53.419Z,18.80
2018-06-13T17:46:22.283Z,18.80
2018-06-13T17:48:51.153Z,18.90
2018-06-13T17:51:19.985Z,19.10
2018-06-13T17:53:48.922Z,19.20
2018-06-13T17:56:17.828Z,19.30
2018-06-13T18:01:15.140Z,19.00
2018-06-13T18:03:44.005Z,18.90
2018-06-13T18:08:41.345Z,18.80
2018-06-13T18:11:10.236Z,18.80
2018-06-13T18:13:39.038Z,18.90
2018-06-13T18:18:36.347Z,18.90
2018-06-13T18:21:05.284Z,18.90
2018-06-13T18:23:34.159Z,19.00
2018-06-13T18:26:02.952Z,19.00
2018-06-13T18:28:31.778Z,19.00
2018-06-13T18:31:00.663Z,18.90
2018-06-13T18:33:29.888Z,18.90
2018-06-13T18:35:58.747Z,18.80
2018-06-13T18:38:28.329Z,18.80
2018-06-13T18:40:57.146Z,18.70
2018-06-13T18:43:25.989Z,18.70
2018-06-13T18:45:54.871Z,18.60
2018-06-13T18:48:23.722Z,18.50
2018-06-13T18:50:52.560Z,18.30
2018-06-13T18:53:21.388Z,18.20
2018-06-13T18:55:50.215Z,18.00
2018-06-13T18:58:28.267Z,17.80
2018-06-13T19:00:57.796Z,17.70
2018-06-13T19:03:27.101Z,17.60
2018-06-13T19:05:56.090Z,17.50
2018-06-13T19:08:27.671Z,17.30
2018-06-13T19:10:58.048Z,17.20
2018-06-13T19:13:30.418Z,17.20
2018-06-13T19:15:59.272Z,17.10
2018-06-13T19:18:28.086Z,17.00
2018-06-13T19:20:59.223Z,17.00
2018-06-13T19:23:28.113Z,16.90
2018-06-13T19:25:56.940Z,16.80
2018-06-13T19:28:25.714Z,16.70
2018-06-13T19:30:54.664Z,16.60
2018-06-13T19:33:23.655Z,16.60
2018-06-13T19:35:52.561Z,16.50
2018-06-13T19:38:21.417Z,16.40
2018-06-13T19:40:50.253Z,16.40
2018-06-13T19:43:24.249Z,16.20
2018-06-13T19:45:53.095Z,16.10
2018-06-13T19:48:27.217Z,16.00
2018-06-13T19:50:56.207Z,15.80
2018-06-13T19:53:30.281Z,15.70
2018-06-13T19:56:06.342Z,15.70
2018-06-13T19:58:37.381Z,15.60
2018-06-13T20:01:12.046Z,15.50
2018-06-13T20:03:48.705Z,15.30
2018-06-13T20:06:18.135Z,15.30
2018-06-13T20:08:47.196Z,15.20
2018-06-13T20:11:16.269Z,15.20
2018-06-13T20:13:50.360Z,15.10
2018-06-13T20:16:35.884Z,15.10
2018-06-13T20:19:37.872Z,15.10
2018-06-13T20:22:06.718Z,15.00
2018-06-13T20:24:35.631Z,14.90
2018-06-13T20:27:09.985Z,14.90
2018-06-13T20:29:43.930Z,14.80
2018-06-13T20:32:12.811Z,14.80
2018-06-13T20:34:41.689Z,14.70
2018-06-13T20:37:10.703Z,14.70
2018-06-13T20:39:39.601Z,14.60
2018-06-13T20:42:08.529Z,14.60
2018-06-13T20:44:37.402Z,14.50
2018-06-13T20:47:06.420Z,14.50
2018-06-13T20:49:35.298Z,14.50
2018-06-13T20:52:04.168Z,14.50
2018-06-13T20:54:42.106Z,14.50
2018-06-13T20:57:11.424Z,14.40
2018-06-13T20:59:40.274Z,14.40
2018-06-13T21:02:09.098Z,14.40
2018-06-13T21:04:37.986Z,14.30
2018-06-13T21:07:06.799Z,14.30
2018-06-13T21:09:35.603Z,14.30
2018-06-13T21:12:04.499Z,14.30
2018-06-13T21:14:33.399Z,14.20
2018-06-13T21:17:02.301Z,14.20
2018-06-13T21:19:31.267Z,14.10
2018-06-13T21:22:00.207Z,14.10
2018-06-13T21:24:29.080Z,14.10
2018-06-13T21:26:58.169Z,14.10
2018-06-13T21:29:27.016Z,14.10
2018-06-13T21:31:55.881Z,14.10
2018-06-13T21:34:24.680Z,14.10
2018-06-13T21:36:53.459Z,14.10
2018-06-13T21:39:22.290Z,14.10
2018-06-13T21:41:51.150Z,14.10
2018-06-13T21:44:20.007Z,14.00
2018-06-13T21:46:48.856Z,14.00
2018-06-13T21:49:17.635Z,14.00
2018-06-13T21:51:46.460Z,13.90
2018-06-13T21:54:15.343Z,13.90
2018-06-13T21:56:44.455Z,13.90
2018-06-13T21:59:13.323Z,13.80
2018-06-13T22:01:43.115Z,13.80
2018-06-13T22:04:11.948Z,13.80
2018-06-13T22:06:40.768Z,13.80
2018-06-13T22:09:10.816Z,13.80
2018-06-13T22:11:44.840Z,13.80
2018-06-13T22:14:14.258Z,13.70
2018-06-13T22:16:43.096Z,13.70
2018-06-13T22:19:11.869Z,13.70
2018-06-13T22:21:40.726Z,13.70
2018-06-13T22:24:09.643Z,13.60
2018-06-13T22:26:38.439Z,13.60
2018-06-13T22:29:07.435Z,13.60
2018-06-13T22:31:36.383Z,13.60
2018-06-13T22:34:05.186Z,13.60
2018-06-13T22:36:34.002Z,13.60
2018-06-13T22:39:02.969Z,13.50
2018-06-13T22:41:31.825Z,13.50
2018-06-13T22:44:00.620Z,13.50
2018-06-13T22:46:29.394Z,13.50
2018-06-13T22:48:58.214Z,13.50
2018-06-13T22:51:27.236Z,13.40
2018-06-13T22:53:56.078Z,13.40
2018-06-13T22:56:24.974Z,13.40
2018-06-13T22:58:53.754Z,13.40
2018-06-13T23:01:22.583Z,13.40
2018-06-13T23:03:51.445Z,13.40
2018-06-13T23:06:20.229Z,13.40
2018-06-13T23:08:48.999Z,13.40
2018-06-13T23:11:17.853Z,13.40
2018-06-13T23:13:46.627Z,13.40
2018-06-13T23:16:15.425Z,13.30
2018-06-13T23:18:44.205Z,13.30
2018-06-13T23:21:12.997Z,13.30
2018-06-13T23:23:41.784Z,13.20
2018-06-13T23:26:10.644Z,13.20
2018-06-13T23:28:39.464Z,13.20
2018-06-13T23:31:08.248Z,13.20
2018-06-13T23:33:37.062Z,13.10
2018-06-13T23:36:06.568Z,13.10
2018-06-13T23:38:35.324Z,13.10
2018-06-13T23:41:04.118Z,13.10
2018-06-13T23:43:32.906Z,13.10
2018-06-13T23:46:01.697Z,13.00
2018-06-13T23:48:30.530Z,12.90
2018-06-13T23:50:59.314Z,12.90
2018-06-13T23:53:28.225Z,12.90
2018-06-13T23:55:57.155Z,12.90
2018-06-13T23:58:25.943Z,12.90
